Time;durP1;ratioP1;P1;durP2;ratioP2;P2;SDS_P1;SDS_P2;PMS_P1;PMS_P2;Temp;Humidity;BMP_temperature;BMP_pressure;BME280_temperature;BME280_humidity;BME280_pressure;Samples;Min_cycle;Max_cycle;Signal;HPM_P1;HPM_P2
2022/06/17 00:05:10;;;;;;;25.63;11.38;;;;;;;26.70;82.07;100596.47;6063275;23;20030;-82
2022/06/17 00:12:00;;;;;;;18.25;14.27;;;;;;;26.17;88.17;100595.69;6047925;23;20037;-83
2022/06/17 00:15:49;;;;;;;25.05;17.27;;;;;;;25.96;91.91;100593.88;6033825;23;20011;-83
2022/06/17 00:18:26;;;;;;;30.35;19.40;;;;;;;25.77;95.24;100595.38;6035027;23;20007;-84
2022/06/17 00:20:54;;;;;;;26.13;19.67;;;;;;;25.56;98.53;100599.00;6033876;23;20003;-84
2022/06/17 00:23:38;;;;;;;34.67;21.38;;;;;;;25.29;100.00;100609.03;5986834;23;20052;-84
2022/06/17 00:26:33;;;;;;;28.90;19.85;;;;;;;25.02;100.00;100607.13;6009646;23;20031;-83
2022/06/17 00:29:12;;;;;;;29.58;21.08;;;;;;;25.02;100.00;100603.63;6092509;23;20451;-86
2022/06/17 00:34:40;;;;;;;38.80;20.35;;;;;;;25.12;100.00;100604.50;6068169;23;20478;-84
2022/06/17 00:37:46;;;;;;;28.75;20.05;;;;;;;25.17;100.00;100607.31;6023622;23;20019;-84
2022/06/17 00:43:34;;;;;;;35.85;20.85;;;;;;;25.07;100.00;100599.06;6099116;23;20050;-81
2022/06/17 00:46:27;;;;;;;35.45;20.77;;;;;;;25.15;100.00;100609.47;6093011;23;19998;-84
2022/06/17 00:49:24;;;;;;;36.67;21.45;;;;;;;24.98;100.00;100608.72;6121035;23;20010;-83
2022/06/17 00:55:22;;;;;;;35.78;20.48;;;;;;;25.01;100.00;100612.81;6120051;23;20019;-84
2022/06/17 00:58:49;;;;;;;35.47;21.05;;;;;;;24.75;100.00;100606.25;6123367;23;20025;-86
2022/06/17 01:05:04;;;;;;;35.35;20.15;;;;;;;24.64;100.00;100605.31;6121180;23;20021;-84
2022/06/17 01:08:14;;;;;;;30.98;20.10;;;;;;;24.60;100.00;100606.06;6080384;23;20065;-87
2022/06/17 01:15:24;;;;;;;34.45;19.00;;;;;;;24.72;100.00;100622.22;6124084;23;20022;-86
2022/06/17 01:53:01;;;;;;;22.63;14.38;;;;;;;23.83;100.00;100595.19;6116968;23;20019;-84
2022/06/17 01:56:11;;;;;;;23.73;14.60;;;;;;;23.79;100.00;100606.78;6108479;23;20061;-87
2022/06/17 01:59:23;;;;;;;24.27;13.82;;;;;;;23.79;100.00;100613.00;6101050;23;20029;-83
2022/06/17 02:02:38;;;;;;;26.98;14.10;;;;;;;23.96;100.00;100621.13;6100367;23;20010;-83
2022/06/17 02:16:45;;;;;;;26.20;13.65;;;;;;;23.63;100.00;100606.50;6125322;23;20034;-88
2022/06/17 02:33:53;;;;;;;21.55;14.43;;;;;;;23.76;100.00;100618.91;6120595;23;20054;-87
2022/06/17 02:42:20;;;;;;;22.65;14.60;;;;;;;23.67;100.00;100628.47;6120343;23;20019;-89
2022/06/17 02:45:59;;;;;;;22.92;15.93;;;;;;;23.53;100.00;100629.88;6084896;23;20079;-84
2022/06/17 02:55:02;;;;;;;26.48;16.70;;;;;;;23.40;100.00;100619.34;6121886;23;20018;-85
2022/06/17 03:07:37;;;;;;;29.83;16.75;;;;;;;23.51;100.00;100635.53;6114352;23;20007;-85
2022/06/17 03:10:43;;;;;;;27.42;17.88;;;;;;;23.48;100.00;100646.84;6061377;23;20014;-84
2022/06/17 03:13:29;;;;;;;24.90;16.65;;;;;;;23.58;100.00;100646.19;6121906;23;20026;-84
2022/06/17 03:30:54;;;;;;;34.20;18.48;;;;;;;23.26;100.00;100658.56;6107948;23;20019;-83
2022/06/17 03:34:17;;;;;;;27.38;17.95;;;;;;;23.39;100.00;100659.09;6062682;23;20019;-85
2022/06/17 03:37:22;;;;;;;24.83;17.30;;;;;;;23.33;100.00;100656.53;6064163;23;20019;-85
2022/06/17 03:55:43;;;;;;;26.80;16.92;;;;;;;23.42;100.00;100668.63;6122782;23;20006;-85
2022/06/17 03:58:56;;;;;;;25.95;17.08;;;;;;;23.46;100.00;100675.22;6060264;23;20039;-85
2022/06/17 04:01:48;;;;;;;26.33;18.38;;;;;;;23.30;100.00;100675.97;6070332;23;20132;-85
2022/06/17 04:04:58;;;;;;;27.27;18.27;;;;;;;23.41;100.00;100672.41;6073383;23;20023;-88
2022/06/17 04:12:52;;;;;;;29.67;18.77;;;;;;;23.32;100.00;100681.94;6113632;23;20116;-86
2022/06/17 04:16:03;;;;;;;25.33;19.60;;;;;;;23.27;100.00;100688.06;6122773;23;20058;-87
2022/06/17 04:19:04;;;;;;;25.13;20.17;;;;;;;23.27;100.00;100692.69;6085221;23;20062;-88
2022/06/17 04:32:34;;;;;;;29.13;19.38;;;;;;;23.27;100.00;100708.91;6074582;23;20018;-89
2022/06/17 05:15:00;;;;;;;30.42;17.98;;;;;;;23.28;100.00;100738.41;6080172;23;20057;-86
2022/06/17 05:20:30;;;;;;;28.27;18.58;;;;;;;23.28;100.00;100724.03;6105597;23;20018;-88
2022/06/17 05:23:28;;;;;;;21.50;17.30;;;;;;;23.25;100.00;100725.34;6115991;23;20017;-91
2022/06/17 05:26:09;;;;;;;28.23;19.17;;;;;;;23.33;100.00;100724.16;6092817;23;20014;-92
2022/06/17 05:29:09;;;;;;;25.58;19.00;;;;;;;23.27;100.00;100725.13;6097168;23;20053;-89
2022/06/17 05:31:53;;;;;;;30.08;20.75;;;;;;;23.29;100.00;100728.41;6086516;23;20061;-90
2022/06/17 06:06:52;;;;;;;25.83;11.65;;;;;;;24.52;100.00;100755.56;6008311;23;20032;-86
2022/06/17 06:16:38;;;;;;;18.95;11.50;;;;;;;24.80;100.00;100771.69;6087491;23;20051;-84
2022/06/17 06:27:52;;;;;;;17.73;9.80;;;;;;;25.78;96.20;100778.94;6087504;23;20073;-87
2022/06/17 06:33:57;;;;;;;24.60;9.40;;;;;;;26.27;91.37;100790.56;6083103;23;20030;-84
2022/06/17 06:44:32;;;;;;;20.80;8.43;;;;;;;27.38;81.69;100790.47;6094528;23;20129;-87
2022/06/17 07:01:22;;;;;;;15.35;7.88;;;;;;;27.58;77.63;100779.69;6168473;23;20009;-85
2022/06/17 07:03:54;;;;;;;15.48;7.90;;;;;;;27.61;76.77;100781.88;6177009;23;20009;-86
2022/06/17 07:14:31;;;;;;;11.13;7.63;;;;;;;27.74;71.96;100790.34;6176855;23;20044;-84
2022/06/17 07:48:33;;;;;;;16.85;7.63;;;;;;;27.70;73.58;100804.78;6174735;23;20055;-82
2022/06/17 08:33:24;;;;;;;9.43;4.10;;;;;;;29.62;53.58;100815.59;6064301;23;20264;-88
2022/06/17 08:53:08;;;;;;;12.45;4.30;;;;;;;29.82;52.69;100823.69;6166184;23;20025;-86
2022/06/17 10:04:48;;;;;;;12.73;5.15;;;;;;;32.04;47.04;100816.03;6140394;23;20287;-83
2022/06/17 10:26:26;;;;;;;;;;;;;;;;;;;;;
2022/06/17 10:36:19;;;;;;;9.80;3.58;;;;;;;33.32;44.09;100794.25;6135262;23;20716;-85
2022/06/17 10:39:25;;;;;;;8.45;4.00;;;;;;;33.58;43.09;100797.28;6156418;23;20021;-86
2022/06/17 10:50:05;;;;;;;9.30;3.95;;;;;;;33.58;43.36;100797.28;6112769;23;19999;-87
2022/06/17 11:30:23;;;;;;;10.95;4.22;;;;;;;33.28;42.81;100778.72;6047057;23;20095;-92
2022/06/17 11:32:52;;;;;;;9.27;3.55;;;;;;;33.13;42.80;100766.91;5994571;23;20015;-92
2022/06/17 11:35:37;;;;;;;8.38;3.80;;;;;;;33.13;43.21;100764.16;6044442;23;20010;-91
2022/06/17 11:38:11;;;;;;;6.05;3.53;;;;;;;33.15;42.97;100764.66;6044437;23;20015;-90
2022/06/17 11:40:48;;;;;;;12.75;3.83;;;;;;;32.98;43.01;100766.38;6019596;23;20078;-89
2022/06/17 11:43:29;;;;;;;10.13;4.97;;;;;;;32.52;44.12;100761.72;6041502;23;20018;-90
2022/06/17 11:45:55;;;;;;;9.50;4.30;;;;;;;32.81;43.93;100766.16;6044106;23;20012;-88
2022/06/17 11:48:22;;;;;;;10.88;4.32;;;;;;;32.62;44.19;100769.78;6043571;23;20068;-90
2022/06/17 11:51:02;;;;;;;10.55;4.50;;;;;;;32.39;44.68;100767.97;6048932;23;20035;-88
2022/06/17 11:53:30;;;;;;;12.32;4.00;;;;;;;32.35;44.82;100755.97;6003195;23;20015;-89
2022/06/17 11:55:57;;;;;;;14.20;5.10;;;;;;;32.21;44.73;100760.63;6021851;23;20532;-91
2022/06/17 11:58:26;;;;;;;6.10;3.80;;;;;;;32.26;45.22;100755.84;6023596;23;20011;-88
2022/06/17 12:00:58;;;;;;;9.45;4.53;;;;;;;32.12;45.29;100760.47;6023988;23;20022;-89
2022/06/17 12:03:33;;;;;;;11.38;4.20;;;;;;;32.05;45.58;100749.06;6048279;23;20043;-90
2022/06/17 12:06:02;;;;;;;12.88;4.80;;;;;;;31.92;45.91;100751.75;6045716;23;20015;-91
2022/06/17 12:08:45;;;;;;;10.85;5.10;;;;;;;31.89;46.11;100746.84;6046393;23;20069;-89
2022/06/17 12:11:16;;;;;;;8.38;4.70;;;;;;;31.74;46.87;100745.16;6040948;23;20015;-90
2022/06/17 12:13:51;;;;;;;16.93;5.00;;;;;;;31.92;46.46;100738.03;6016937;23;20098;-88
2022/06/17 12:16:28;;;;;;;11.63;4.75;;;;;;;32.10;46.35;100735.28;6016661;23;20243;-90
2022/06/17 12:18:57;;;;;;;13.77;4.63;;;;;;;32.28;45.41;100733.63;6041187;23;20015;-88
2022/06/17 12:21:24;;;;;;;14.95;5.45;;;;;;;32.23;45.30;100736.44;6044333;23;20055;-90
2022/06/17 12:24:07;;;;;;;14.32;5.28;;;;;;;32.25;44.92;100731.47;6043867;23;20042;-91
2022/06/17 12:26:39;;;;;;;12.88;5.10;;;;;;;32.09;45.74;100739.13;6048626;23;20011;-89
2022/06/17 12:29:37;;;;;;;11.18;4.63;;;;;;;32.08;45.90;100723.81;6047497;23;20016;-89
2022/06/17 12:32:14;;;;;;;17.73;5.60;;;;;;;32.14;46.44;100724.53;5927128;24;20013;-89
2022/06/17 12:34:54;;;;;;;11.60;5.28;;;;;;;32.14;45.91;100725.34;5926466;24;20021;-89
2022/06/17 12:37:28;;;;;;;11.75;5.38;;;;;;;32.30;45.43;100725.09;5928305;24;20115;-89
2022/06/17 12:39:57;;;;;;;17.65;5.03;;;;;;;32.25;46.41;100715.81;5929383;24;20017;-89
2022/06/17 12:42:33;;;;;;;14.15;6.90;;;;;;;32.35;45.99;100719.50;6018910;23;20012;-89
2022/06/17 12:45:31;;;;;;;13.27;8.30;;;;;;;32.33;46.15;100714.31;6052785;23;20015;-89
2022/06/17 12:48:24;;;;;;;10.18;5.10;;;;;;;32.32;46.52;100714.63;6026512;23;20019;-90
2022/06/17 12:54:21;;;;;;;13.10;5.90;;;;;;;32.26;46.95;100708.41;6057259;23;20007;-90
2022/06/17 12:56:58;;;;;;;15.88;5.55;;;;;;;32.21;46.61;100703.84;6056165;23;20039;-88
2022/06/17 13:00:18;;;;;;;10.85;5.63;;;;;;;32.18;46.66;100704.41;6030954;23;20074;-88
2022/06/17 13:03:08;;;;;;;11.70;5.60;;;;;;;31.94;46.78;100714.69;5941076;24;20061;-86
2022/06/17 13:05:43;;;;;;;15.60;6.35;;;;;;;31.88;47.42;100707.66;5943166;24;20024;-86
2022/06/17 13:08:17;;;;;;;14.40;5.82;;;;;;;31.87;47.71;100697.81;5916951;24;20115;-86
2022/06/17 13:11:14;;;;;;;8.73;6.00;;;;;;;31.98;46.65;100695.72;5905159;24;20017;-86
2022/06/17 13:13:50;;;;;;;10.93;6.10;;;;;;;31.77;46.93;100697.97;5926004;24;20396;-89
2022/06/17 13:16:20;;;;;;;11.25;6.15;;;;;;;31.79;46.35;100698.47;5909939;23;20017;-88
2022/06/17 13:18:53;;;;;;;12.15;6.22;;;;;;;31.74;46.71;100693.91;6015486;23;20058;-89
2022/06/17 13:21:27;;;;;;;15.07;6.25;;;;;;;31.88;46.92;100695.88;6039294;23;20329;-86
2022/06/17 13:24:17;;;;;;;12.38;5.63;;;;;;;32.08;46.80;100690.91;6016078;23;20035;-87
2022/06/17 13:26:56;;;;;;;9.27;5.25;;;;;;;32.35;46.23;100686.59;6016692;23;20339;-87
2022/06/17 13:29:21;;;;;;;13.23;5.28;;;;;;;32.44;46.28;100684.78;6041610;23;20106;-87
2022/06/17 13:32:14;;;;;;;8.90;5.28;;;;;;;32.57;46.23;100681.22;6042050;23;20019;-86
2022/06/17 13:34:55;;;;;;;13.80;6.20;;;;;;;32.48;45.08;100685.78;6041987;23;20418;-87
2022/06/17 13:37:50;;;;;;;14.17;6.70;;;;;;;32.42;44.16;100681.50;6014493;23;20011;-87
2022/06/17 13:40:33;;;;;;;11.60;6.18;;;;;;;32.28;43.56;100681.50;6040466;23;20083;-88
2022/06/17 13:43:05;;;;;;;11.80;5.90;;;;;;;32.40;43.42;100684.56;6041196;23;20016;-90
2022/06/17 13:45:37;;;;;;;12.00;5.85;;;;;;;32.36;44.40;100671.75;6043662;23;20020;-86
2022/06/17 13:48:24;;;;;;;10.60;6.25;;;;;;;32.31;45.53;100671.84;6016059;23;20011;-86
2022/06/17 13:50:49;;;;;;;14.82;5.95;;;;;;;32.38;45.07;100675.00;6042280;23;20043;-89
2022/06/17 13:53:36;;;;;;;16.70;6.00;;;;;;;32.35;43.36;100673.66;6017432;23;20003;-87
2022/06/17 13:56:33;;;;;;;14.63;6.00;;;;;;;32.21;41.36;100672.84;6041813;23;20011;-86
2022/06/17 13:59:30;;;;;;;11.13;5.60;;;;;;;32.36;42.29;100671.75;6048712;23;20094;-91
2022/06/17 14:02:29;;;;;;;13.60;5.93;;;;;;;32.31;42.81;100669.94;6031845;23;20026;-90
2022/06/17 14:05:01;;;;;;;18.63;5.93;;;;;;;32.37;41.69;100662.41;6036393;23;20022;-87
2022/06/17 14:07:48;;;;;;;12.43;5.45;;;;;;;32.19;41.76;100667.66;6063095;23;20003;-86
2022/06/17 14:10:36;;;;;;;15.20;6.43;;;;;;;32.20;42.12;100658.31;6061504;23;20011;-89
2022/06/17 14:13:23;;;;;;;15.85;5.72;;;;;;;32.34;41.35;100663.00;6029520;23;20273;-87
2022/06/17 14:16:15;;;;;;;10.88;5.20;;;;;;;32.38;41.79;100658.56;6028950;23;20011;-86
2022/06/17 14:18:54;;;;;;;7.78;5.53;;;;;;;32.43;41.43;100651.03;6050029;23;20026;-87
2022/06/17 14:21:46;;;;;;;11.20;5.38;;;;;;;32.41;41.76;100652.44;6049281;23;20018;-84
2022/06/17 14:24:44;;;;;;;17.30;6.25;;;;;;;32.46;42.03;100644.94;6047559;23;20046;-84
2022/06/17 14:27:27;;;;;;;13.15;5.53;;;;;;;32.49;41.38;100641.56;6044753;23;20019;-84
2022/06/17 14:30:15;;;;;;;10.50;5.68;;;;;;;32.52;42.52;100637.41;6043423;23;20015;-87
2022/06/17 14:32:44;;;;;;;12.52;5.60;;;;;;;32.53;41.85;100639.03;6044053;23;20016;-87
2022/06/17 14:35:31;;;;;;;12.30;6.00;;;;;;;32.62;41.43;100637.22;6051557;23;19999;-90
2022/06/17 14:38:28;;;;;;;10.20;5.50;;;;;;;32.60;40.21;100631.25;6048965;23;20018;-83
2022/06/17 14:44:00;;;;;;;12.35;5.72;;;;;;;32.56;41.04;100638.41;6043802;23;20007;-87
2022/06/17 14:46:25;;;;;;;11.70;5.90;;;;;;;32.50;41.10;100629.47;6045169;23;20064;-89
2022/06/17 14:49:42;;;;;;;13.15;5.65;;;;;;;32.65;40.56;100631.94;6043630;23;20391;-90
2022/06/17 14:52:24;;;;;;;14.20;5.20;;;;;;;32.55;40.38;100625.81;5954380;23;20038;-91
2022/06/17 14:55:16;;;;;;;10.77;5.07;;;;;;;32.45;39.76;100621.34;6045991;23;20072;-92
2022/06/17 14:58:04;;;;;;;15.38;5.10;;;;;;;32.44;39.99;100624.41;6018416;23;20019;-88
2022/06/17 15:00:40;;;;;;;9.90;4.72;;;;;;;32.46;39.77;100627.63;6002159;23;20103;-88
2022/06/17 15:03:36;;;;;;;11.30;4.70;;;;;;;32.53;37.42;100622.56;6042002;23;20066;-91
2022/06/17 15:06:05;;;;;;;8.57;4.93;;;;;;;32.56;38.18;100620.03;6040482;23;20416;-88
2022/06/17 15:08:36;;;;;;;11.93;4.80;;;;;;;32.28;39.05;100621.16;6043006;23;20514;-90
2022/06/17 15:11:07;;;;;;;14.25;5.30;;;;;;;32.33;39.26;100617.47;6020971;23;20071;-92
2022/06/17 15:16:33;;;;;;;14.75;8.27;;;;;;;32.44;38.93;100618.91;6046691;23;20011;-91
2022/06/17 15:19:00;;;;;;;18.35;9.43;;;;;;;32.49;37.33;100613.31;6027125;23;20347;-94
2022/06/17 15:21:35;;;;;;;12.07;3.97;;;;;;;32.53;36.38;100611.59;6021653;23;20007;-88
2022/06/17 15:24:31;;;;;;;6.45;3.75;;;;;;;32.75;35.07;100603.47;6044460;23;20064;-90
2022/06/17 15:27:34;;;;;;;9.40;5.45;;;;;;;32.81;35.03;100607.75;5995294;23;20011;-92
2022/06/17 15:30:15;;;;;;;10.18;4.78;;;;;;;32.84;35.92;100600.81;6044079;23;20012;-91
2022/06/17 15:32:49;;;;;;;12.05;4.30;;;;;;;32.76;35.51;100603.16;5993131;23;20474;-87
2022/06/17 15:35:31;;;;;;;8.48;4.22;;;;;;;32.74;35.44;100596.38;6017947;23;20013;-90
2022/06/17 15:38:30;;;;;;;8.80;4.57;;;;;;;32.75;35.79;100592.47;6017779;23;20067;-91
2022/06/17 15:41:18;;;;;;;10.65;3.75;;;;;;;32.66;35.46;100583.34;6036154;23;20019;-92
2022/06/17 15:44:19;;;;;;;10.65;3.90;;;;;;;32.64;34.00;100585.59;6019987;23;20008;-91
2022/06/17 15:46:52;;;;;;;7.35;4.10;;;;;;;32.67;34.59;100584.97;6019231;23;20023;-90
2022/06/17 15:49:23;;;;;;;7.68;3.70;;;;;;;32.64;34.51;100585.59;6044503;23;20018;-86
2022/06/17 15:52:26;;;;;;;11.90;3.75;;;;;;;32.61;35.04;100597.19;6043136;23;20011;-86
2022/06/17 15:54:56;;;;;;;7.05;4.10;;;;;;;32.61;35.56;100589.78;5928743;24;20021;-89
2022/06/17 15:57:33;;;;;;;8.68;3.97;;;;;;;32.61;35.05;100587.03;5927329;24;20021;-87
2022/06/17 16:00:01;;;;;;;10.13;4.30;;;;;;;32.65;35.19;100581.72;5927571;24;20024;-86
2022/06/17 16:02:34;;;;;;;9.57;4.00;;;;;;;32.70;36.18;100584.38;5907821;24;20370;-87
2022/06/17 16:05:08;;;;;;;10.65;3.90;;;;;;;32.69;35.57;100588.22;5980924;23;20029;-87
2022/06/17 16:07:35;;;;;;;9.20;3.92;;;;;;;32.60;35.31;100585.41;6050258;23;20077;-91
2022/06/17 16:10:00;;;;;;;13.18;4.50;;;;;;;32.62;35.91;100579.59;6005428;23;20015;-90
2022/06/17 16:12:29;;;;;;;8.05;3.88;;;;;;;32.63;36.10;100583.97;6051199;23;20023;-90
2022/06/17 16:15:16;;;;;;;13.93;4.18;;;;;;;32.67;35.48;100579.50;6027320;23;20019;-89
2022/06/17 16:17:46;;;;;;;8.68;4.10;;;;;;;32.68;35.04;100586.63;6054562;23;20039;-89
2022/06/17 16:20:27;;;;;;;8.93;4.07;;;;;;;32.63;34.97;100578.47;6038669;23;20095;-89
2022/06/17 16:22:54;;;;;;;14.05;4.60;;;;;;;32.50;35.88;100585.56;6049409;23;20048;-89
2022/06/17 16:25:36;;;;;;;10.75;4.35;;;;;;;32.50;36.38;100579.28;5986145;23;20039;-90
2022/06/17 16:28:10;;;;;;;11.23;4.43;;;;;;;32.54;36.05;100572.06;6055294;23;20470;-89
2022/06/17 16:30:49;;;;;;;7.63;4.30;;;;;;;32.65;35.95;100587.19;6054608;23;20011;-89
2022/06/17 16:36:36;;;;;;;7.85;4.50;;;;;;;32.57;37.38;100580.53;6086408;23;20078;-90
2022/06/17 16:39:25;;;;;;;8.68;4.65;;;;;;;32.57;37.29;100582.41;6081813;23;20099;-90
2022/06/17 16:45:31;;;;;;;7.32;4.20;;;;;;;32.52;36.58;100588.00;6052445;23;20025;-91
2022/06/17 16:47:59;;;;;;;11.63;4.13;;;;;;;32.37;36.45;100591.06;6015502;23;20026;-89
2022/06/17 16:50:26;;;;;;;5.93;3.97;;;;;;;32.36;36.94;100592.19;6072652;23;20010;-90
2022/06/17 16:52:58;;;;;;;8.25;4.10;;;;;;;32.40;37.53;100584.97;6046837;23;20007;-89
2022/06/17 16:55:30;;;;;;;8.18;4.40;;;;;;;32.58;36.94;100586.84;6071552;23;20018;-86
2022/06/17 16:57:59;;;;;;;6.65;4.50;;;;;;;32.41;35.82;100583.84;6075666;23;20043;-88
2022/06/17 17:00:34;;;;;;;8.80;4.50;;;;;;;32.37;36.04;100580.09;6079893;23;20015;-90
2022/06/17 17:03:00;;;;;;;7.80;4.15;;;;;;;32.47;35.49;100588.94;6074863;23;20074;-87
2022/06/17 17:05:31;;;;;;;6.65;4.00;;;;;;;32.36;36.15;100583.94;6052807;23;20010;-90
2022/06/17 17:07:58;;;;;;;9.45;3.92;;;;;;;32.35;35.40;100588.63;6082427;23;20025;-89
2022/06/17 17:10:27;;;;;;;11.57;4.32;;;;;;;32.35;34.21;100587.81;6095049;23;19999;-87
2022/06/17 17:12:57;;;;;;;7.28;3.60;;;;;;;32.32;35.38;100582.94;6091280;23;20066;-90
2022/06/17 17:15:23;;;;;;;5.03;3.58;;;;;;;32.33;34.66;100585.38;6074723;23;20503;-89
2022/06/17 17:17:52;;;;;;;9.70;3.95;;;;;;;32.37;34.93;100585.59;6072844;23;20006;-90
2022/06/17 17:20:21;;;;;;;7.57;4.13;;;;;;;32.49;34.46;100591.34;6048071;23;20070;-90
2022/06/17 17:22:51;;;;;;;10.10;4.18;;;;;;;32.40;34.93;100584.97;6074044;23;20019;-87
2022/06/17 17:25:25;;;;;;;6.45;3.88;;;;;;;32.35;35.57;100582.34;6078362;23;20023;-92
2022/06/17 17:27:55;;;;;;;6.20;4.20;;;;;;;32.34;35.42;100581.53;6074785;23;20095;-92
2022/06/17 17:30:21;;;;;;;8.07;4.07;;;;;;;32.21;36.30;100582.34;6033729;23;20018;-90
2022/06/17 17:32:56;;;;;;;8.48;4.32;;;;;;;32.14;36.43;100574.50;6057001;23;20014;-89
2022/06/17 17:35:29;;;;;;;9.18;4.28;;;;;;;32.08;37.53;100573.00;6036299;23;20038;-92
2022/06/17 17:37:59;;;;;;;8.32;4.10;;;;;;;32.04;36.22;100580.19;6062205;23;20038;-93
2022/06/17 17:40:37;;;;;;;8.45;4.35;;;;;;;32.08;36.17;100580.41;6090780;23;20093;-91
2022/06/17 17:43:10;;;;;;;11.50;4.28;;;;;;;32.10;35.97;100581.72;6041199;23;20098;-92
2022/06/17 17:45:51;;;;;;;10.70;4.30;;;;;;;32.10;36.80;100575.41;6080628;23;20014;-92
2022/06/17 17:48:25;;;;;;;10.05;4.57;;;;;;;32.01;36.93;100578.03;6064603;23;20027;-92
2022/06/17 17:50:53;;;;;;;8.80;4.45;;;;;;;32.01;37.05;100580.75;6042117;23;20019;-91
2022/06/17 17:53:27;;;;;;;11.48;4.65;;;;;;;32.06;37.57;100583.44;6086452;23;20018;-90
2022/06/17 17:56:37;;;;;;;8.23;3.65;;;;;;;31.99;37.70;100580.22;6067028;23;20025;-90
2022/06/17 17:59:22;;;;;;;11.88;4.00;;;;;;;32.08;37.68;100589.44;6065148;23;20019;-91
2022/06/17 18:01:59;;;;;;;9.18;4.65;;;;;;;31.94;38.65;100588.56;6045661;23;20018;-90
2022/06/17 18:04:27;;;;;;;12.13;4.82;;;;;;;32.03;38.21;100592.22;6066005;23;20015;-89
2022/06/17 18:07:00;;;;;;;10.10;4.28;;;;;;;31.97;38.62;100596.19;6066118;23;20022;-92
2022/06/17 18:09:50;;;;;;;9.65;4.68;;;;;;;32.00;39.03;100603.81;6091383;23;20016;-92
2022/06/17 18:12:19;;;;;;;9.18;4.43;;;;;;;32.03;39.35;100592.22;6087900;23;20026;-92
2022/06/17 18:17:42;;;;;;;12.43;4.15;;;;;;;32.10;39.03;100613.81;6064022;23;20023;-91
2022/06/17 18:20:40;;;;;;;10.27;5.07;;;;;;;31.99;39.35;100602.16;6058871;23;20027;-90
2022/06/17 18:23:24;;;;;;;6.95;4.20;;;;;;;32.03;39.79;100608.69;6062825;23;20018;-90
2022/06/17 18:26:34;;;;;;;9.30;4.38;;;;;;;31.99;40.31;100604.09;6032779;23;20046;-90
2022/06/17 18:31:52;;;;;;;11.10;4.70;;;;;;;31.79;40.45;100608.00;6063516;23;20063;-93
2022/06/17 18:39:44;;;;;;;;;;;;;;;31.78;41.44;100611.88;6063322;23;20027;-90
2022/06/17 18:42:36;;;;;;;10.02;4.85;;;;;;;31.49;42.61;100619.44;6037486;23;19898;-90
2022/06/17 18:45:11;;;;;;;16.77;5.78;;;;;;;31.53;42.71;100620.53;6063486;23;20015;-92
2022/06/17 18:48:02;;;;;;;13.00;5.57;;;;;;;31.40;43.08;100627.53;6037548;23;20043;-87
2022/06/17 18:53:50;;;;;;;15.95;5.55;;;;;;;31.06;45.05;100622.28;6053668;23;19996;-91
2022/06/17 18:57:14;;;;;;;12.70;5.40;;;;;;;31.00;46.36;100628.94;6075596;23;20028;-90
2022/06/17 19:06:14;;;;;;;11.75;5.30;;;;;;;30.90;48.27;100637.25;6149064;23;20566;-86
2022/06/17 19:17:23;;;;;;;13.63;5.50;;;;;;;30.31;54.40;100645.06;6093856;23;20070;-88
2022/06/17 19:19:57;;;;;;;12.52;5.32;;;;;;;30.33;53.73;100645.59;6088750;23;20023;-93
2022/06/17 19:22:27;;;;;;;12.95;6.28;;;;;;;30.31;52.35;100642.31;6078697;23;20102;-87
2022/06/17 19:24:56;;;;;;;12.95;6.22;;;;;;;30.40;52.53;100654.25;6096757;23;20073;-90
2022/06/17 19:27:24;;;;;;;12.85;5.40;;;;;;;30.43;52.78;100651.78;6101292;23;20072;-91
2022/06/17 19:29:49;;;;;;;9.63;5.30;;;;;;;30.32;53.39;100655.72;6079453;23;20014;-91
2022/06/17 19:32:21;;;;;;;17.27;5.32;;;;;;;30.17;54.97;100659.41;6103092;23;20081;-91
2022/06/17 19:34:47;;;;;;;10.50;5.57;;;;;;;30.04;55.99;100665.56;6100119;23;20039;-89
2022/06/17 19:37:16;;;;;;;15.93;6.07;;;;;;;29.97;55.96;100669.72;6101644;23;20006;-90
2022/06/17 19:39:42;;;;;;;11.32;6.20;;;;;;;29.85;56.85;100675.56;6049210;23;20013;-90
2022/06/17 19:42:17;;;;;;;16.85;5.93;;;;;;;29.65;57.47;100683.88;6099086;23;20022;-90
2022/06/17 19:44:44;;;;;;;16.45;5.65;;;;;;;29.61;58.16;100688.28;6098675;23;20017;-88
2022/06/17 19:47:14;;;;;;;13.60;6.03;;;;;;;29.56;58.37;100696.53;6072588;23;20007;-91
2022/06/17 19:49:46;;;;;;;12.52;5.85;;;;;;;29.41;59.42;100696.59;6098878;23;20010;-88
2022/06/17 19:52:33;;;;;;;13.18;6.18;;;;;;;29.33;59.51;100689.84;6098814;23;20534;-89
2022/06/17 19:55:07;;;;;;;16.30;6.13;;;;;;;29.40;59.76;100693.06;6077395;23;20018;-92
2022/06/17 19:57:35;;;;;;;11.07;5.90;;;;;;;29.29;59.88;100701.59;6106631;23;20010;-87
2022/06/17 20:00:00;;;;;;;13.00;5.88;;;;;;;29.36;59.79;100702.09;6101693;23;20006;-87
2022/06/17 20:02:31;;;;;;;15.15;6.00;;;;;;;29.24;60.93;100716.88;6074145;23;20389;-86
2022/06/17 20:04:58;;;;;;;13.60;6.00;;;;;;;29.13;61.65;100712.53;6099995;23;20021;-87
2022/06/17 20:07:26;;;;;;;15.32;6.35;;;;;;;29.01;62.41;100716.69;6080924;23;20033;-89
2022/06/17 20:09:53;;;;;;;19.25;5.80;;;;;;;28.93;62.60;100726.31;6114204;23;20038;-88
2022/06/17 20:12:21;;;;;;;8.57;5.70;;;;;;;28.92;62.67;100729.28;6118417;23;19998;-90
2022/06/17 20:14:49;;;;;;;14.70;6.00;;;;;;;28.91;62.43;100739.38;6117969;23;19998;-86
2022/06/17 20:17:15;;;;;;;13.05;6.25;;;;;;;28.88;63.12;100737.22;6098965;23;20066;-88
2022/06/17 20:19:43;;;;;;;15.65;6.80;;;;;;;28.91;63.19;100749.47;6097564;23;20014;-90
2022/06/17 20:22:15;;;;;;;13.10;6.60;;;;;;;28.88;63.98;100745.41;6054396;23;20015;-87
2022/06/17 20:24:45;;;;;;;10.75;6.90;;;;;;;28.90;64.38;100742.41;6103673;23;20087;-89
2022/06/17 20:27:16;;;;;;;9.43;5.97;;;;;;;28.89;64.08;100747.03;6076677;23;20014;-86
2022/06/17 20:29:42;;;;;;;13.27;6.40;;;;;;;28.96;63.39;100747.56;6105349;23;20071;-88
2022/06/17 20:32:13;;;;;;;14.07;6.53;;;;;;;28.78;65.29;100752.78;6110634;23;20041;-89
2022/06/17 20:34:39;;;;;;;15.55;7.28;;;;;;;28.64;66.46;100760.69;6081398;23;20033;-87
2022/06/17 20:37:04;;;;;;;14.35;6.70;;;;;;;28.55;67.73;100754.19;6103474;23;20010;-87
2022/06/17 20:39:35;;;;;;;14.82;6.72;;;;;;;28.44;69.84;100763.47;6060589;23;20013;-87
2022/06/17 20:42:13;;;;;;;19.52;7.03;;;;;;;28.39;69.39;100758.00;6086462;23;20014;-89
2022/06/17 20:51:03;;;;;;;10.23;6.75;;;;;;;28.34;69.80;100760.75;6107125;23;20559;-90
2022/06/17 20:53:29;;;;;;;14.25;6.50;;;;;;;28.38;68.94;100761.81;6079221;23;20011;-90
2022/06/17 20:55:55;;;;;;;12.93;7.00;;;;;;;28.28;69.15;100761.81;6079607;23;20061;-89
2022/06/17 20:58:24;;;;;;;13.43;6.30;;;;;;;28.25;69.06;100765.91;6107776;23;20058;-87
2022/06/17 21:12:16;;;;;;;10.20;6.97;;;;;;;27.88;71.60;100778.94;6120090;23;20022;-94
2022/06/17 21:20:06;;;;;;;11.07;6.88;;;;;;;28.10;69.31;100780.38;6076500;23;20074;-88
2022/06/17 21:22:36;;;;;;;14.65;7.18;;;;;;;28.14;68.45;100784.19;6060999;23;20347;-94
2022/06/17 21:25:39;;;;;;;17.70;7.30;;;;;;;28.07;68.89;100782.84;6042516;23;20040;-90
2022/06/17 21:30:48;;;;;;;10.27;7.10;;;;;;;27.88;71.32;100784.38;6135650;23;20018;-87
2022/06/17 21:36:36;;;;;;;14.40;7.55;;;;;;;27.20;73.54;100799.94;6058610;23;20011;-89
2022/06/17 21:39:21;;;;;;;16.38;7.78;;;;;;;27.14;74.15;100801.81;6037907;23;20555;-87
2022/06/17 21:42:08;;;;;;;16.45;7.57;;;;;;;27.08;74.80;100800.13;6145410;23;20068;-87
2022/06/17 21:52:51;;;;;;;19.15;7.65;;;;;;;27.01;73.49;100813.16;6056717;23;20023;-89
2022/06/17 21:55:42;;;;;;;10.52;7.30;;;;;;;27.04;74.30;100815.38;6033590;23;20019;-85
2022/06/17 22:03:35;;;;;;;14.63;7.45;;;;;;;26.90;75.29;100827.78;6052040;23;20019;-91
2022/06/17 22:06:22;;;;;;;15.00;7.65;;;;;;;26.77;76.26;100838.28;6054580;23;20027;-87
2022/06/17 22:08:55;;;;;;;14.45;7.93;;;;;;;26.79;75.87;100844.25;6060768;23;20071;-88
2022/06/17 22:12:15;;;;;;;13.10;7.10;;;;;;;26.96;75.50;100845.78;6035291;23;20007;-86
2022/06/17 22:14:59;;;;;;;10.65;7.25;;;;;;;27.01;75.34;100855.88;6059275;23;19999;-86